sensor_id;sensor_type;location;lat;lon;timestamp;P1;durP1;ratioP1;P2;durP2;ratioP2
79171;SDS011;68597;53.238;-1.418;2023-04-25T00:00:02;7.97;;;2.67;;
79171;SDS011;68597;53.238;-1.418;2023-04-25T00:02:37;9.48;;;2.22;;
79171;SDS011;68597;53.238;-1.418;2023-04-25T00:05:03;5.18;;;2.25;;
79171;SDS011;68597;53.238;-1.418;2023-04-25T00:07:29;5.75;;;2.00;;
79171;SDS011;68597;53.238;-1.418;2023-04-25T00:09:55;7.25;;;2.05;;
79171;SDS011;68597;53.238;-1.418;2023-04-25T00:12:23;13.23;;;2.72;;
79171;SDS011;68597;53.238;-1.418;2023-04-25T00:14:49;13.55;;;2.50;;
79171;SDS011;68597;53.238;-1.418;2023-04-25T00:17:15;5.85;;;1.90;;
79171;SDS011;68597;53.238;-1.418;2023-04-25T00:19:40;6.28;;;1.40;;
79171;SDS011;68597;53.238;-1.418;2023-04-25T00:22:06;9.18;;;1.85;;
79171;SDS011;68597;53.238;-1.418;2023-04-25T00:24:33;13.18;;;2.58;;
79171;SDS011;68597;53.238;-1.418;2023-04-25T00:26:58;4.38;;;1.40;;
79171;SDS011;68597;53.238;-1.418;2023-04-25T00:29:26;7.75;;;2.03;;
79171;SDS011;68597;53.238;-1.418;2023-04-25T00:31:52;7.45;;;1.75;;
79171;SDS011;68597;53.238;-1.418;2023-04-25T00:34:17;18.50;;;3.85;;
79171;SDS011;68597;53.238;-1.418;2023-04-25T00:36:43;46.55;;;8.95;;
79171;SDS011;68597;53.238;-1.418;2023-04-25T00:39:09;38.95;;;7.97;;
79171;SDS011;68597;53.238;-1.418;2023-04-25T00:41:35;28.40;;;5.90;;
79171;SDS011;68597;53.238;-1.418;2023-04-25T00:44:01;18.13;;;3.97;;
79171;SDS011;68597;53.238;-1.418;2023-04-25T00:46:29;16.27;;;3.72;;
79171;SDS011;68597;53.238;-1.418;2023-04-25T00:48:56;13.63;;;3.28;;
79171;SDS011;68597;53.238;-1.418;2023-04-25T00:51:22;7.78;;;1.95;;
79171;SDS011;68597;53.238;-1.418;2023-04-25T00:53:48;13.45;;;2.47;;
79171;SDS011;68597;53.238;-1.418;2023-04-25T00:56:15;12.27;;;2.92;;
79171;SDS011;68597;53.238;-1.418;2023-04-25T00:58:41;11.75;;;2.60;;
79171;SDS011;68597;53.238;-1.418;2023-04-25T01:01:07;8.73;;;2.40;;
79171;SDS011;68597;53.238;-1.418;2023-04-25T01:03:34;9.07;;;1.92;;
79171;SDS011;68597;53.238;-1.418;2023-04-25T01:06:03;10.25;;;2.50;;
79171;SDS011;68597;53.238;-1.418;2023-04-25T01:08:29;9.70;;;2.58;;
79171;SDS011;68597;53.238;-1.418;2023-04-25T01:10:55;9.30;;;2.15;;
79171;SDS011;68597;53.238;-1.418;2023-04-25T01:13:21;13.13;;;2.85;;
79171;SDS011;68597;53.238;-1.418;2023-04-25T01:15:47;6.75;;;2.15;;
79171;SDS011;68597;53.238;-1.418;2023-04-25T01:18:13;9.02;;;1.92;;
79171;SDS011;68597;53.238;-1.418;2023-04-25T01:20:41;9.77;;;2.33;;
79171;SDS011;68597;53.238;-1.418;2023-04-25T01:23:08;10.27;;;2.65;;
79171;SDS011;68597;53.238;-1.418;2023-04-25T01:25:35;6.80;;;2.15;;
79171;SDS011;68597;53.238;-1.418;2023-04-25T01:28:02;10.05;;;2.30;;
79171;SDS011;68597;53.238;-1.418;2023-04-25T01:30:28;7.88;;;2.30;;
79171;SDS011;68597;53.238;-1.418;2023-04-25T01:32:55;10.80;;;2.42;;
79171;SDS011;68597;53.238;-1.418;2023-04-25T01:35:22;11.32;;;2.42;;
79171;SDS011;68597;53.238;-1.418;2023-04-25T01:37:48;6.97;;;1.88;;
79171;SDS011;68597;53.238;-1.418;2023-04-25T01:40:15;6.13;;;2.00;;
79171;SDS011;68597;53.238;-1.418;2023-04-25T01:42:42;10.95;;;2.45;;
79171;SDS011;68597;53.238;-1.418;2023-04-25T01:45:09;7.30;;;2.45;;
79171;SDS011;68597;53.238;-1.418;2023-04-25T01:47:36;10.88;;;2.97;;
79171;SDS011;68597;53.238;-1.418;2023-04-25T01:50:02;8.90;;;2.53;;
79171;SDS011;68597;53.238;-1.418;2023-04-25T01:52:30;5.70;;;1.90;;
79171;SDS011;68597;53.238;-1.418;2023-04-25T01:54:56;10.95;;;2.97;;
79171;SDS011;68597;53.238;-1.418;2023-04-25T01:57:24;8.23;;;2.22;;
79171;SDS011;68597;53.238;-1.418;2023-04-25T01:59:49;7.55;;;2.15;;
79171;SDS011;68597;53.238;-1.418;2023-04-25T02:02:35;11.18;;;2.63;;
79171;SDS011;68597;53.238;-1.418;2023-04-25T02:05:03;10.43;;;2.42;;
79171;SDS011;68597;53.238;-1.418;2023-04-25T02:07:31;9.57;;;2.33;;
79171;SDS011;68597;53.238;-1.418;2023-04-25T02:09:57;7.97;;;2.10;;
79171;SDS011;68597;53.238;-1.418;2023-04-25T02:12:26;15.70;;;2.58;;
79171;SDS011;68597;53.238;-1.418;2023-04-25T02:15:12;7.72;;;2.15;;
79171;SDS011;68597;53.238;-1.418;2023-04-25T02:17:42;8.35;;;2.30;;
79171;SDS011;68597;53.238;-1.418;2023-04-25T02:20:09;6.43;;;2.22;;
79171;SDS011;68597;53.238;-1.418;2023-04-25T02:22:35;8.25;;;1.75;;
79171;SDS011;68597;53.238;-1.418;2023-04-25T02:25:04;12.52;;;2.20;;
79171;SDS011;68597;53.238;-1.418;2023-04-25T02:27:33;7.20;;;2.17;;
79171;SDS011;68597;53.238;-1.418;2023-04-25T02:29:59;9.45;;;1.90;;
79171;SDS011;68597;53.238;-1.418;2023-04-25T02:32:28;8.88;;;2.00;;
79171;SDS011;68597;53.238;-1.418;2023-04-25T02:34:54;6.85;;;1.88;;
79171;SDS011;68597;53.238;-1.418;2023-04-25T02:37:20;10.40;;;2.13;;
79171;SDS011;68597;53.238;-1.418;2023-04-25T02:39:46;10.73;;;2.22;;
79171;SDS011;68597;53.238;-1.418;2023-04-25T02:42:12;7.20;;;1.83;;
79171;SDS011;68597;53.238;-1.418;2023-04-25T02:44:39;7.25;;;1.50;;
79171;SDS011;68597;53.238;-1.418;2023-04-25T02:47:05;10.60;;;1.83;;
79171;SDS011;68597;53.238;-1.418;2023-04-25T02:49:31;10.05;;;2.28;;
79171;SDS011;68597;53.238;-1.418;2023-04-25T02:51:57;6.85;;;2.00;;
79171;SDS011;68597;53.238;-1.418;2023-04-25T02:54:23;6.93;;;1.90;;
79171;SDS011;68597;53.238;-1.418;2023-04-25T02:56:49;9.63;;;1.95;;
79171;SDS011;68597;53.238;-1.418;2023-04-25T02:59:21;7.00;;;1.77;;
79171;SDS011;68597;53.238;-1.418;2023-04-25T03:01:48;8.50;;;1.85;;
79171;SDS011;68597;53.238;-1.418;2023-04-25T03:04:14;8.20;;;1.80;;
79171;SDS011;68597;53.238;-1.418;2023-04-25T03:06:40;7.65;;;1.83;;
79171;SDS011;68597;53.238;-1.418;2023-04-25T03:09:06;9.68;;;2.72;;
79171;SDS011;68597;53.238;-1.418;2023-04-25T03:11:32;8.52;;;1.98;;
79171;SDS011;68597;53.238;-1.418;2023-04-25T03:13:59;8.65;;;1.80;;
79171;SDS011;68597;53.238;-1.418;2023-04-25T03:16:26;5.85;;;1.55;;
79171;SDS011;68597;53.238;-1.418;2023-04-25T03:18:53;5.47;;;2.15;;
79171;SDS011;68597;53.238;-1.418;2023-04-25T03:21:19;9.65;;;2.53;;
79171;SDS011;68597;53.238;-1.418;2023-04-25T03:23:45;6.90;;;1.95;;
79171;SDS011;68597;53.238;-1.418;2023-04-25T03:26:11;6.10;;;1.48;;
79171;SDS011;68597;53.238;-1.418;2023-04-25T03:28:37;4.53;;;1.42;;
79171;SDS011;68597;53.238;-1.418;2023-04-25T03:31:03;10.82;;;2.00;;
79171;SDS011;68597;53.238;-1.418;2023-04-25T03:33:29;8.70;;;1.77;;
79171;SDS011;68597;53.238;-1.418;2023-04-25T03:35:56;8.25;;;1.90;;
79171;SDS011;68597;53.238;-1.418;2023-04-25T03:38:23;5.15;;;1.52;;
79171;SDS011;68597;53.238;-1.418;2023-04-25T03:40:49;10.27;;;1.98;;
79171;SDS011;68597;53.238;-1.418;2023-04-25T03:43:31;9.68;;;1.60;;
79171;SDS011;68597;53.238;-1.418;2023-04-25T03:46:10;6.78;;;1.70;;
79171;SDS011;68597;53.238;-1.418;2023-04-25T03:48:37;8.52;;;1.73;;
79171;SDS011;68597;53.238;-1.418;2023-04-25T03:51:05;4.88;;;1.70;;
79171;SDS011;68597;53.238;-1.418;2023-04-25T03:53:33;5.78;;;1.52;;
79171;SDS011;68597;53.238;-1.418;2023-04-25T03:56:19;7.80;;;1.98;;
79171;SDS011;68597;53.238;-1.418;2023-04-25T03:58:46;6.10;;;1.63;;
79171;SDS011;68597;53.238;-1.418;2023-04-25T04:01:15;7.60;;;2.13;;
79171;SDS011;68597;53.238;-1.418;2023-04-25T04:03:41;6.07;;;2.13;;
79171;SDS011;68597;53.238;-1.418;2023-04-25T04:06:08;6.75;;;2.58;;
79171;SDS011;68597;53.238;-1.418;2023-04-25T04:08:38;10.15;;;2.03;;
79171;SDS011;68597;53.238;-1.418;2023-04-25T04:11:04;7.57;;;1.98;;
79171;SDS011;68597;53.238;-1.418;2023-04-25T04:13:31;6.78;;;1.73;;
79171;SDS011;68597;53.238;-1.418;2023-04-25T04:15:57;6.75;;;1.98;;
79171;SDS011;68597;53.238;-1.418;2023-04-25T04:18:24;7.90;;;2.03;;
79171;SDS011;68597;53.238;-1.418;2023-04-25T04:20:50;7.68;;;1.92;;
79171;SDS011;68597;53.238;-1.418;2023-04-25T04:23:18;10.95;;;2.17;;
79171;SDS011;68597;53.238;-1.418;2023-04-25T04:25:44;7.40;;;2.00;;
79171;SDS011;68597;53.238;-1.418;2023-04-25T04:28:30;9.40;;;2.05;;
79171;SDS011;68597;53.238;-1.418;2023-04-25T04:31:03;12.40;;;2.10;;
79171;SDS011;68597;53.238;-1.418;2023-04-25T04:33:29;7.70;;;2.17;;
79171;SDS011;68597;53.238;-1.418;2023-04-25T04:35:58;6.13;;;2.28;;
79171;SDS011;68597;53.238;-1.418;2023-04-25T04:38:26;10.57;;;2.03;;
79171;SDS011;68597;53.238;-1.418;2023-04-25T04:40:55;10.48;;;2.72;;
79171;SDS011;68597;53.238;-1.418;2023-04-25T04:43:33;4.30;;;1.55;;
79171;SDS011;68597;53.238;-1.418;2023-04-25T04:46:13;7.18;;;2.00;;
79171;SDS011;68597;53.238;-1.418;2023-04-25T04:48:59;8.77;;;1.85;;
79171;SDS011;68597;53.238;-1.418;2023-04-25T04:51:40;5.72;;;1.63;;
79171;SDS011;68597;53.238;-1.418;2023-04-25T04:54:15;9.25;;;1.90;;
79171;SDS011;68597;53.238;-1.418;2023-04-25T04:57:01;7.18;;;1.30;;
79171;SDS011;68597;53.238;-1.418;2023-04-25T04:59:37;6.32;;;1.83;;
79171;SDS011;68597;53.238;-1.418;2023-04-25T05:02:20;7.80;;;2.22;;
79171;SDS011;68597;53.238;-1.418;2023-04-25T05:05:06;8.45;;;1.70;;
79171;SDS011;68597;53.238;-1.418;2023-04-25T05:07:52;9.38;;;2.13;;
79171;SDS011;68597;53.238;-1.418;2023-04-25T05:10:30;6.97;;;1.75;;
79171;SDS011;68597;53.238;-1.418;2023-04-25T05:13:14;5.28;;;1.50;;
79171;SDS011;68597;53.238;-1.418;2023-04-25T05:15:59;5.60;;;1.65;;
79171;SDS011;68597;53.238;-1.418;2023-04-25T05:18:34;3.72;;;1.30;;
79171;SDS011;68597;53.238;-1.418;2023-04-25T05:21:20;4.35;;;1.17;;
79171;SDS011;68597;53.238;-1.418;2023-04-25T05:23:57;4.63;;;1.20;;
79171;SDS011;68597;53.238;-1.418;2023-04-25T05:26:45;5.05;;;1.55;;
79171;SDS011;68597;53.238;-1.418;2023-04-25T05:29:31;5.00;;;1.05;;
79171;SDS011;68597;53.238;-1.418;2023-04-25T05:32:17;6.80;;;1.75;;
79171;SDS011;68597;53.238;-1.418;2023-04-25T05:34:44;9.20;;;1.85;;
79171;SDS011;68597;53.238;-1.418;2023-04-25T05:37:19;4.35;;;1.05;;
79171;SDS011;68597;53.238;-1.418;2023-04-25T05:39:53;3.83;;;1.38;;
79171;SDS011;68597;53.238;-1.418;2023-04-25T05:42:40;5.28;;;1.45;;
79171;SDS011;68597;53.238;-1.418;2023-04-25T05:45:22;4.00;;;1.25;;
79171;SDS011;68597;53.238;-1.418;2023-04-25T05:48:07;5.55;;;1.73;;
79171;SDS011;68597;53.238;-1.418;2023-04-25T05:50:41;6.25;;;1.38;;
79171;SDS011;68597;53.238;-1.418;2023-04-25T05:53:27;5.78;;;1.38;;
79171;SDS011;68597;53.238;-1.418;2023-04-25T05:55:59;8.73;;;1.48;;
79171;SDS011;68597;53.238;-1.418;2023-04-25T05:58:31;6.30;;;1.60;;
79171;SDS011;68597;53.238;-1.418;2023-04-25T06:00:58;7.05;;;1.60;;
79171;SDS011;68597;53.238;-1.418;2023-04-25T06:03:24;7.82;;;1.40;;
79171;SDS011;68597;53.238;-1.418;2023-04-25T06:05:50;6.32;;;1.35;;
79171;SDS011;68597;53.238;-1.418;2023-04-25T06:08:16;6.03;;;1.58;;
79171;SDS011;68597;53.238;-1.418;2023-04-25T06:10:42;4.43;;;1.38;;
79171;SDS011;68597;53.238;-1.418;2023-04-25T06:13:08;7.93;;;1.40;;
79171;SDS011;68597;53.238;-1.418;2023-04-25T06:15:37;5.47;;;1.27;;
79171;SDS011;68597;53.238;-1.418;2023-04-25T06:18:02;5.57;;;1.55;;
79171;SDS011;68597;53.238;-1.418;2023-04-25T06:20:28;9.48;;;1.98;;
79171;SDS011;68597;53.238;-1.418;2023-04-25T06:22:57;7.90;;;1.70;;
79171;SDS011;68597;53.238;-1.418;2023-04-25T06:25:32;7.40;;;1.90;;
79171;SDS011;68597;53.238;-1.418;2023-04-25T06:27:58;6.75;;;1.67;;
79171;SDS011;68597;53.238;-1.418;2023-04-25T06:30:24;4.95;;;1.80;;
79171;SDS011;68597;53.238;-1.418;2023-04-25T06:32:55;6.95;;;1.70;;
79171;SDS011;68597;53.238;-1.418;2023-04-25T06:35:23;6.20;;;1.83;;
79171;SDS011;68597;53.238;-1.418;2023-04-25T06:37:49;4.75;;;1.70;;
79171;SDS011;68597;53.238;-1.418;2023-04-25T06:40:17;5.85;;;1.73;;
79171;SDS011;68597;53.238;-1.418;2023-04-25T06:42:43;7.57;;;2.00;;
79171;SDS011;68597;53.238;-1.418;2023-04-25T06:45:29;8.43;;;3.38;;
79171;SDS011;68597;53.238;-1.418;2023-04-25T06:47:57;12.40;;;4.15;;
79171;SDS011;68597;53.238;-1.418;2023-04-25T06:50:23;9.88;;;3.33;;
79171;SDS011;68597;53.238;-1.418;2023-04-25T06:52:49;10.27;;;3.40;;
79171;SDS011;68597;53.238;-1.418;2023-04-25T06:55:17;9.00;;;2.50;;
79171;SDS011;68597;53.238;-1.418;2023-04-25T06:57:57;6.90;;;1.50;;
79171;SDS011;68597;53.238;-1.418;2023-04-25T07:00:42;6.10;;;1.60;;
79171;SDS011;68597;53.238;-1.418;2023-04-25T07:03:10;8.48;;;1.73;;
79171;SDS011;68597;53.238;-1.418;2023-04-25T07:05:35;7.07;;;1.38;;
79171;SDS011;68597;53.238;-1.418;2023-04-25T07:08:01;5.13;;;1.30;;
79171;SDS011;68597;53.238;-1.418;2023-04-25T07:10:27;5.97;;;1.48;;
79171;SDS011;68597;53.238;-1.418;2023-04-25T07:12:54;5.75;;;1.38;;
79171;SDS011;68597;53.238;-1.418;2023-04-25T07:15:19;10.57;;;1.88;;
79171;SDS011;68597;53.238;-1.418;2023-04-25T07:17:47;6.22;;;1.48;;
79171;SDS011;68597;53.238;-1.418;2023-04-25T07:20:16;9.40;;;1.50;;
79171;SDS011;68597;53.238;-1.418;2023-04-25T07:22:42;4.80;;;1.70;;
79171;SDS011;68597;53.238;-1.418;2023-04-25T07:25:08;6.40;;;1.58;;
79171;SDS011;68597;53.238;-1.418;2023-04-25T07:27:35;3.63;;;1.27;;
79171;SDS011;68597;53.238;-1.418;2023-04-25T07:30:10;3.42;;;1.45;;
79171;SDS011;68597;53.238;-1.418;2023-04-25T07:32:38;5.25;;;1.60;;
79171;SDS011;68597;53.238;-1.418;2023-04-25T07:35:04;4.47;;;1.50;;
79171;SDS011;68597;53.238;-1.418;2023-04-25T07:37:32;5.60;;;1.25;;
79171;SDS011;68597;53.238;-1.418;2023-04-25T07:40:05;9.85;;;1.30;;
79171;SDS011;68597;53.238;-1.418;2023-04-25T07:42:32;4.78;;;1.23;;
79171;SDS011;68597;53.238;-1.418;2023-04-25T07:44:58;6.20;;;1.73;;
79171;SDS011;68597;53.238;-1.418;2023-04-25T07:47:24;3.47;;;1.10;;
79171;SDS011;68597;53.238;-1.418;2023-04-25T07:49:51;6.22;;;1.67;;
79171;SDS011;68597;53.238;-1.418;2023-04-25T07:52:17;7.30;;;1.50;;
79171;SDS011;68597;53.238;-1.418;2023-04-25T07:54:50;5.88;;;1.20;;
79171;SDS011;68597;53.238;-1.418;2023-04-25T07:57:21;6.07;;;1.45;;
79171;SDS011;68597;53.238;-1.418;2023-04-25T07:59:49;5.47;;;1.42;;
79171;SDS011;68597;53.238;-1.418;2023-04-25T08:02:15;5.68;;;1.75;;
79171;SDS011;68597;53.238;-1.418;2023-04-25T08:04:40;6.07;;;2.38;;
79171;SDS011;68597;53.238;-1.418;2023-04-25T08:07:09;8.60;;;1.70;;
79171;SDS011;68597;53.238;-1.418;2023-04-25T08:09:44;4.82;;;1.20;;
79171;SDS011;68597;53.238;-1.418;2023-04-25T08:12:20;4.28;;;1.15;;
79171;SDS011;68597;53.238;-1.418;2023-04-25T08:14:46;7.43;;;1.30;;
79171;SDS011;68597;53.238;-1.418;2023-04-25T08:17:12;2.92;;;1.10;;
79171;SDS011;68597;53.238;-1.418;2023-04-25T08:19:40;5.90;;;1.38;;
79171;SDS011;68597;53.238;-1.418;2023-04-25T08:22:12;4.18;;;1.00;;
79171;SDS011;68597;53.238;-1.418;2023-04-25T08:24:47;5.03;;;1.40;;
79171;SDS011;68597;53.238;-1.418;2023-04-25T08:27:14;4.55;;;1.20;;
79171;SDS011;68597;53.238;-1.418;2023-04-25T08:29:42;6.70;;;1.63;;
79171;SDS011;68597;53.238;-1.418;2023-04-25T08:32:08;9.48;;;2.03;;
79171;SDS011;68597;53.238;-1.418;2023-04-25T08:34:38;4.75;;;2.00;;
79171;SDS011;68597;53.238;-1.418;2023-04-25T08:37:04;4.45;;;1.20;;
79171;SDS011;68597;53.238;-1.418;2023-04-25T08:39:44;6.85;;;1.52;;
79171;SDS011;68597;53.238;-1.418;2023-04-25T08:42:30;6.85;;;2.17;;
79171;SDS011;68597;53.238;-1.418;2023-04-25T08:45:00;3.42;;;1.38;;
79171;SDS011;68597;53.238;-1.418;2023-04-25T08:47:31;5.85;;;1.58;;
79171;SDS011;68597;53.238;-1.418;2023-04-25T08:49:59;4.40;;;1.15;;
79171;SDS011;68597;53.238;-1.418;2023-04-25T08:52:27;4.50;;;1.85;;
79171;SDS011;68597;53.238;-1.418;2023-04-25T08:54:55;7.68;;;1.60;;
79171;SDS011;68597;53.238;-1.418;2023-04-25T08:57:23;6.88;;;1.35;;
79171;SDS011;68597;53.238;-1.418;2023-04-25T08:59:51;5.18;;;1.48;;
79171;SDS011;68597;53.238;-1.418;2023-04-25T09:02:19;4.78;;;1.05;;
79171;SDS011;68597;53.238;-1.418;2023-04-25T09:04:48;3.65;;;1.52;;
79171;SDS011;68597;53.238;-1.418;2023-04-25T09:07:14;4.15;;;1.13;;
79171;SDS011;68597;53.238;-1.418;2023-04-25T09:09:40;5.30;;;1.30;;
79171;SDS011;68597;53.238;-1.418;2023-04-25T09:12:06;3.92;;;1.55;;
79171;SDS011;68597;53.238;-1.418;2023-04-25T09:14:32;5.40;;;1.38;;
79171;SDS011;68597;53.238;-1.418;2023-04-25T09:17:02;6.50;;;1.30;;
79171;SDS011;68597;53.238;-1.418;2023-04-25T09:19:40;5.10;;;1.52;;
79171;SDS011;68597;53.238;-1.418;2023-04-25T09:22:13;2.58;;;0.90;;
79171;SDS011;68597;53.238;-1.418;2023-04-25T09:24:39;2.42;;;0.82;;
79171;SDS011;68597;53.238;-1.418;2023-04-25T09:27:07;4.45;;;1.33;;
79171;SDS011;68597;53.238;-1.418;2023-04-25T09:29:34;3.97;;;1.45;;
79171;SDS011;68597;53.238;-1.418;2023-04-25T09:34:46;5.22;;;2.03;;
79171;SDS011;68597;53.238;-1.418;2023-04-25T09:37:16;3.80;;;1.02;;
79171;SDS011;68597;53.238;-1.418;2023-04-25T09:40:04;4.65;;;1.10;;
79171;SDS011;68597;53.238;-1.418;2023-04-25T09:42:34;8.00;;;2.38;;
79171;SDS011;68597;53.238;-1.418;2023-04-25T09:45:00;4.20;;;1.40;;
79171;SDS011;68597;53.238;-1.418;2023-04-25T09:47:27;6.88;;;1.60;;
79171;SDS011;68597;53.238;-1.418;2023-04-25T09:49:55;3.00;;;1.10;;
79171;SDS011;68597;53.238;-1.418;2023-04-25T09:52:21;4.93;;;1.52;;
79171;SDS011;68597;53.238;-1.418;2023-04-25T09:54:57;5.40;;;1.55;;
79171;SDS011;68597;53.238;-1.418;2023-04-25T09:57:29;7.07;;;1.60;;
79171;SDS011;68597;53.238;-1.418;2023-04-25T09:59:56;4.65;;;1.30;;
79171;SDS011;68597;53.238;-1.418;2023-04-25T10:02:29;5.65;;;1.70;;
79171;SDS011;68597;53.238;-1.418;2023-04-25T10:05:05;4.57;;;1.30;;
79171;SDS011;68597;53.238;-1.418;2023-04-25T10:07:37;6.47;;;1.48;;
79171;SDS011;68597;53.238;-1.418;2023-04-25T10:10:08;4.97;;;1.55;;
79171;SDS011;68597;53.238;-1.418;2023-04-25T10:12:37;3.17;;;1.17;;
79171;SDS011;68597;53.238;-1.418;2023-04-25T10:15:04;4.60;;;1.30;;
79171;SDS011;68597;53.238;-1.418;2023-04-25T10:17:30;5.78;;;1.60;;
79171;SDS011;68597;53.238;-1.418;2023-04-25T10:19:57;6.03;;;1.50;;
79171;SDS011;68597;53.238;-1.418;2023-04-25T10:22:26;3.95;;;1.30;;
79171;SDS011;68597;53.238;-1.418;2023-04-25T10:24:56;6.07;;;1.38;;
79171;SDS011;68597;53.238;-1.418;2023-04-25T10:27:22;4.10;;;1.27;;
79171;SDS011;68597;53.238;-1.418;2023-04-25T10:29:59;5.63;;;1.40;;
79171;SDS011;68597;53.238;-1.418;2023-04-25T10:32:26;5.22;;;1.90;;
79171;SDS011;68597;53.238;-1.418;2023-04-25T10:34:51;4.43;;;1.13;;
79171;SDS011;68597;53.238;-1.418;2023-04-25T10:37:17;7.10;;;1.73;;
79171;SDS011;68597;53.238;-1.418;2023-04-25T10:39:45;5.00;;;1.25;;
79171;SDS011;68597;53.238;-1.418;2023-04-25T10:42:11;8.02;;;1.50;;
79171;SDS011;68597;53.238;-1.418;2023-04-25T10:44:37;5.85;;;1.40;;
79171;SDS011;68597;53.238;-1.418;2023-04-25T10:47:03;3.95;;;1.42;;
79171;SDS011;68597;53.238;-1.418;2023-04-25T10:49:32;4.00;;;1.52;;
79171;SDS011;68597;53.238;-1.418;2023-04-25T10:54:41;6.72;;;1.70;;
79171;SDS011;68597;53.238;-1.418;2023-04-25T10:57:09;5.43;;;1.70;;
79171;SDS011;68597;53.238;-1.418;2023-04-25T10:59:51;5.88;;;1.90;;
79171;SDS011;68597;53.238;-1.418;2023-04-25T11:02:17;6.88;;;2.25;;
79171;SDS011;68597;53.238;-1.418;2023-04-25T11:04:44;4.43;;;1.80;;
79171;SDS011;68597;53.238;-1.418;2023-04-25T11:07:13;5.75;;;1.98;;
79171;SDS011;68597;53.238;-1.418;2023-04-25T11:09:49;3.92;;;1.33;;
79171;SDS011;68597;53.238;-1.418;2023-04-25T11:12:16;8.65;;;2.08;;
79171;SDS011;68597;53.238;-1.418;2023-04-25T11:14:42;4.35;;;1.20;;
79171;SDS011;68597;53.238;-1.418;2023-04-25T11:17:08;5.80;;;1.73;;
79171;SDS011;68597;53.238;-1.418;2023-04-25T11:19:34;9.43;;;1.75;;
79171;SDS011;68597;53.238;-1.418;2023-04-25T11:22:00;4.28;;;1.50;;
79171;SDS011;68597;53.238;-1.418;2023-04-25T11:24:27;7.72;;;2.15;;
79171;SDS011;68597;53.238;-1.418;2023-04-25T11:26:53;6.00;;;1.55;;
79171;SDS011;68597;53.238;-1.418;2023-04-25T11:29:22;5.72;;;1.65;;
79171;SDS011;68597;53.238;-1.418;2023-04-25T11:31:48;5.32;;;2.08;;
79171;SDS011;68597;53.238;-1.418;2023-04-25T11:34:16;6.30;;;1.58;;
79171;SDS011;68597;53.238;-1.418;2023-04-25T11:36:42;6.32;;;1.80;;
79171;SDS011;68597;53.238;-1.418;2023-04-25T11:39:09;5.60;;;1.85;;
79171;SDS011;68597;53.238;-1.418;2023-04-25T11:41:36;5.63;;;1.83;;
79171;SDS011;68597;53.238;-1.418;2023-04-25T11:44:03;6.43;;;1.70;;
79171;SDS011;68597;53.238;-1.418;2023-04-25T11:46:30;4.85;;;1.88;;
79171;SDS011;68597;53.238;-1.418;2023-04-25T11:48:58;3.42;;;1.40;;
79171;SDS011;68597;53.238;-1.418;2023-04-25T11:51:25;5.45;;;1.73;;
79171;SDS011;68597;53.238;-1.418;2023-04-25T11:53:51;5.85;;;2.30;;
79171;SDS011;68597;53.238;-1.418;2023-04-25T11:56:17;6.15;;;2.03;;
79171;SDS011;68597;53.238;-1.418;2023-04-25T12:01:26;6.28;;;2.05;;
79171;SDS011;68597;53.238;-1.418;2023-04-25T12:03:54;5.07;;;1.98;;
79171;SDS011;68597;53.238;-1.418;2023-04-25T12:06:20;7.32;;;2.33;;
79171;SDS011;68597;53.238;-1.418;2023-04-25T12:08:58;4.38;;;1.85;;
79171;SDS011;68597;53.238;-1.418;2023-04-25T12:11:25;7.82;;;2.22;;
79171;SDS011;68597;53.238;-1.418;2023-04-25T12:13:51;7.60;;;2.25;;
79171;SDS011;68597;53.238;-1.418;2023-04-25T12:16:17;7.40;;;2.55;;
79171;SDS011;68597;53.238;-1.418;2023-04-25T12:18:44;4.85;;;1.75;;
79171;SDS011;68597;53.238;-1.418;2023-04-25T12:21:11;4.50;;;1.90;;
79171;SDS011;68597;53.238;-1.418;2023-04-25T12:23:38;7.07;;;2.00;;
79171;SDS011;68597;53.238;-1.418;2023-04-25T12:26:04;6.20;;;2.30;;
79171;SDS011;68597;53.238;-1.418;2023-04-25T12:28:32;4.72;;;2.10;;
79171;SDS011;68597;53.238;-1.418;2023-04-25T12:30:58;5.70;;;2.20;;
79171;SDS011;68597;53.238;-1.418;2023-04-25T12:33:25;6.63;;;2.53;;
79171;SDS011;68597;53.238;-1.418;2023-04-25T12:35:52;4.07;;;1.90;;
79171;SDS011;68597;53.238;-1.418;2023-04-25T12:38:23;6.78;;;1.90;;
79171;SDS011;68597;53.238;-1.418;2023-04-25T12:40:51;6.80;;;2.08;;
79171;SDS011;68597;53.238;-1.418;2023-04-25T12:43:17;9.75;;;1.98;;
79171;SDS011;68597;53.238;-1.418;2023-04-25T12:45:43;5.80;;;2.15;;
79171;SDS011;68597;53.238;-1.418;2023-04-25T12:48:09;8.63;;;2.08;;
79171;SDS011;68597;53.238;-1.418;2023-04-25T12:50:35;8.85;;;2.20;;
79171;SDS011;68597;53.238;-1.418;2023-04-25T12:53:01;5.05;;;1.88;;
79171;SDS011;68597;53.238;-1.418;2023-04-25T12:55:28;7.30;;;2.20;;
79171;SDS011;68597;53.238;-1.418;2023-04-25T12:57:54;7.43;;;2.47;;
79171;SDS011;68597;53.238;-1.418;2023-04-25T13:00:19;4.88;;;1.85;;
79171;SDS011;68597;53.238;-1.418;2023-04-25T13:02:45;8.18;;;2.40;;
79171;SDS011;68597;53.238;-1.418;2023-04-25T13:05:11;7.60;;;2.50;;
79171;SDS011;68597;53.238;-1.418;2023-04-25T13:07:37;8.23;;;2.58;;
79171;SDS011;68597;53.238;-1.418;2023-04-25T13:10:03;6.55;;;2.38;;
79171;SDS011;68597;53.238;-1.418;2023-04-25T13:12:31;6.35;;;2.17;;
79171;SDS011;68597;53.238;-1.418;2023-04-25T13:14:57;5.88;;;2.30;;
79171;SDS011;68597;53.238;-1.418;2023-04-25T13:17:23;6.13;;;2.40;;
79171;SDS011;68597;53.238;-1.418;2023-04-25T13:19:49;6.95;;;2.28;;
79171;SDS011;68597;53.238;-1.418;2023-04-25T13:22:15;7.45;;;2.35;;
79171;SDS011;68597;53.238;-1.418;2023-04-25T13:24:40;5.60;;;2.58;;
79171;SDS011;68597;53.238;-1.418;2023-04-25T13:27:06;6.03;;;2.05;;
79171;SDS011;68597;53.238;-1.418;2023-04-25T13:29:33;7.05;;;2.80;;
79171;SDS011;68597;53.238;-1.418;2023-04-25T13:31:59;5.40;;;1.92;;
79171;SDS011;68597;53.238;-1.418;2023-04-25T13:34:25;6.00;;;2.10;;
79171;SDS011;68597;53.238;-1.418;2023-04-25T13:36:51;8.80;;;2.60;;
79171;SDS011;68597;53.238;-1.418;2023-04-25T13:39:17;6.65;;;2.72;;
79171;SDS011;68597;53.238;-1.418;2023-04-25T13:41:43;7.60;;;2.55;;
79171;SDS011;68597;53.238;-1.418;2023-04-25T13:44:09;4.97;;;2.10;;
79171;SDS011;68597;53.238;-1.418;2023-04-25T13:46:36;5.88;;;2.40;;
79171;SDS011;68597;53.238;-1.418;2023-04-25T13:49:02;5.38;;;2.40;;
79171;SDS011;68597;53.238;-1.418;2023-04-25T13:51:28;6.40;;;3.15;;
79171;SDS011;68597;53.238;-1.418;2023-04-25T13:53:54;8.57;;;2.88;;
79171;SDS011;68597;53.238;-1.418;2023-04-25T13:56:20;6.28;;;1.85;;
79171;SDS011;68597;53.238;-1.418;2023-04-25T13:58:46;7.95;;;3.03;;
79171;SDS011;68597;53.238;-1.418;2023-04-25T14:01:12;8.85;;;2.45;;
79171;SDS011;68597;53.238;-1.418;2023-04-25T14:03:39;5.93;;;2.25;;
79171;SDS011;68597;53.238;-1.418;2023-04-25T14:06:05;6.68;;;2.63;;
79171;SDS011;68597;53.238;-1.418;2023-04-25T14:08:31;6.97;;;2.38;;
79171;SDS011;68597;53.238;-1.418;2023-04-25T14:10:57;9.45;;;2.67;;
79171;SDS011;68597;53.238;-1.418;2023-04-25T14:13:22;5.57;;;1.95;;
79171;SDS011;68597;53.238;-1.418;2023-04-25T14:15:49;5.68;;;2.22;;
79171;SDS011;68597;53.238;-1.418;2023-04-25T14:18:16;7.47;;;2.78;;
79171;SDS011;68597;53.238;-1.418;2023-04-25T14:20:43;10.32;;;3.00;;
79171;SDS011;68597;53.238;-1.418;2023-04-25T14:23:09;7.20;;;2.53;;
79171;SDS011;68597;53.238;-1.418;2023-04-25T14:25:35;6.32;;;2.50;;
79171;SDS011;68597;53.238;-1.418;2023-04-25T14:28:01;7.50;;;2.72;;
79171;SDS011;68597;53.238;-1.418;2023-04-25T14:30:27;7.47;;;2.78;;
79171;SDS011;68597;53.238;-1.418;2023-04-25T14:32:53;8.52;;;3.00;;
79171;SDS011;68597;53.238;-1.418;2023-04-25T14:35:19;8.00;;;2.25;;
79171;SDS011;68597;53.238;-1.418;2023-04-25T14:37:46;6.78;;;2.15;;
79171;SDS011;68597;53.238;-1.418;2023-04-25T14:40:12;6.05;;;1.92;;
79171;SDS011;68597;53.238;-1.418;2023-04-25T14:42:38;8.40;;;2.38;;
79171;SDS011;68597;53.238;-1.418;2023-04-25T14:45:05;6.15;;;2.38;;
79171;SDS011;68597;53.238;-1.418;2023-04-25T14:47:33;6.78;;;2.58;;
79171;SDS011;68597;53.238;-1.418;2023-04-25T14:49:59;7.25;;;2.30;;